Flight Track Log - Related Links

Times and Time Zones

All times are in EDT time to prevent confusion due to time zone crossing. See the EJA831 flight status page for this flight to view local times or setup timezone preferences in your user account.

Time Position Orientation Groundspeed Altitude Reporting Facility
EDT Latitude Longitude Course Direction KTS MPH feet Rate Location/Type
Tue 01:50:36 PM 33.3167 -111.6667 23° Northeast 167 192 1,700  Level Phoenix TRACON
Tue 01:51:43 PM 33.3500 -111.6500 23° Northeast 211 243 4,600 2,362 Climbing Phoenix TRACON
Tue 01:52:10 PM 33.3464 -111.6256 100° East 218 251 5,400 1,551 Climbing Albuquerque Center
Tue 01:53:12 PM 33.3850 -111.5789 45° Northeast 232 267 6,900 1,306 Climbing Albuquerque Center
Tue 01:54:14 PM 33.4478 -111.5517 20° North 238 274 8,100 2,371 Climbing Albuquerque Center
Tue 01:55:16 PM 33.5194 -111.5208 20° North 253 291 11,800 3,435 Climbing Albuquerque Center
Tue 01:56:18 PM 33.5833 -111.5742 325° Northwest 298 343 15,200 3,366 Climbing Albuquerque Center
Tue 01:57:19 PM 33.6322 -111.6553 306° West 299 344 18,700 2,829 Climbing Albuquerque Center
Tue 01:58:21 PM 33.6808 -111.7394 305° West 303 349 21,000 1,452 Climbing Albuquerque Center
Tue 01:59:23 PM 33.7519 -111.8603 305° West 356 410 21,700 1,597 Climbing Albuquerque Center
Tue 02:00:25 PM 33.8092 -111.9606 304° West 363 418 24,300 2,488 Climbing Albuquerque Center
Tue 02:01:26 PM 33.8653 -112.0547 306° West 356 410 26,800 1,805 Climbing Albuquerque Center
Tue 02:02:28 PM 33.9214 -112.1500 305° West 348 400 28,000 581 Climbing Albuquerque Center
Tue 02:03:30 PM 33.9886 -112.2506 309° West 383 441 28,000  Level Albuquerque Center
Tue 02:04:31 PM 34.0883 -112.3208 330° Northwest 408 470 28,000  Level Albuquerque Center
Tue 02:05:33 PM 34.1872 -112.3892 330° Northwest 410 472 28,000  Level Albuquerque Center
Tue 02:06:35 PM 34.2856 -112.4583 330° Northwest 409 471 28,000  Level Albuquerque Center
Tue 02:07:36 PM 34.3844 -112.5278 330° Northwest 409 471 28,000  Level Albuquerque Center
Tue 02:08:38 PM 34.4886 -112.6172 325° Northwest 404 465 28,000  Level Albuquerque Center
Tue 02:09:40 PM 34.5628 -112.7131 313° West 392 451 28,000  Level Albuquerque Center
Tue 02:10:41 PM 34.6408 -112.8033 316° Northwest 391 450 28,000  Level Albuquerque Center
Tue 02:11:43 PM 34.7108 -112.8978 312° West 388 447 28,000  Level Albuquerque Center
Tue 02:12:45 PM 34.7233 -113.0106 278° West 346 398 28,000  Level Albuquerque Center
Tue 02:13:46 PM 34.7272 -113.1464 272° West 338 389 28,000  Level Albuquerque Center
Tue 02:14:48 PM 34.7303 -113.2600 272° West 336 387 28,000  Level Albuquerque Center
Tue 02:15:49 PM 34.7342 -113.3781 272° West 338 389 28,000  Level Albuquerque Center
Tue 02:16:51 PM 34.7383 -113.4906 273° West 342 394 28,000  Level Albuquerque Center
Tue 02:17:52 PM 34.7417 -113.6089 272° West 348 400 28,000  Level Albuquerque Center
Tue 02:18:54 PM 34.7450 -113.7247 272° West 346 398 28,000  Level Albuquerque Center
Tue 02:19:55 PM 34.7478 -113.8411 272° West 345 397 28,000  Level Albuquerque Center
Tue 02:20:45 PM 34.7517 -113.9353 273° West 350 403 28,000  Level Los Angeles Center
Tue 02:21:47 PM 34.7544 -114.0581 272° West 349 402 28,000  Level Los Angeles Center
Tue 02:22:49 PM 34.7594 -114.2017 272° West 353 406 28,000  Level Los Angeles Center
Tue 02:23:51 PM 34.7622 -114.3219 272° West 356 410 28,000  Level Los Angeles Center
Tue 02:24:53 PM 34.7650 -114.4428 272° West 358 412 28,000  Level Los Angeles Center
Tue 02:25:55 PM 34.7675 -114.5639 271° West 358 412 28,000  Level Los Angeles Center
Tue 02:26:57 PM 34.7706 -114.6806 272° West 348 400 28,000  Level Los Angeles Center
Tue 02:27:59 PM 34.7733 -114.7989 272° West 350 403 28,000  Level Los Angeles Center
Tue 02:29:01 PM 34.7758 -114.9444 271° West 356 410 28,000  Level Los Angeles Center
Tue 02:30:15 PM 34.7789 -115.0628 272° West 351 404 28,000  Level Los Angeles Center
Tue 02:31:18 PM 34.7817 -115.2061 271° West 353 406 28,000  Level Los Angeles Center
Tue 02:32:31 PM 34.7831 -115.3264 271° West 354 407 28,000 -353 Level Los Angeles Center
Tue 02:33:34 PM 34.7856 -115.4706 271° West 356 410 27,200 -960 Descending Los Angeles Center
Tue 02:34:36 PM 34.7878 -115.5997 271° West 342 394 26,000 -1,065 Descending Los Angeles Center
Tue 02:35:38 PM 34.7894 -115.7167 271° West 344 396 25,000 -878 Descending Los Angeles Center
Tue 02:36:39 PM 34.7903 -115.8108 271° West 348 400 24,200 -484 Descending Los Angeles Center
Tue 02:37:42 PM 34.7914 -115.9544 271° West 352 405 24,000 -96 Descending Los Angeles Center
Tue 02:38:44 PM 34.7933 -116.0719 271° West 351 404 24,000 -390 Level Los Angeles Center
Tue 02:39:45 PM 34.7944 -116.1911 271° West 351 404 23,200 -976 Descending Los Angeles Center
Tue 02:40:47 PM 34.7964 -116.3378 271° West 361 415 22,000 -581 Descending Los Angeles Center
Tue 02:41:49 PM 34.7969 -116.4564 270° West 354 407 22,000  Level Los Angeles Center
Tue 02:42:51 PM 34.7872 -116.5742 264° West 350 403 22,000  Level Los Angeles Center
Tue 02:43:53 PM 34.7739 -116.6947 262° West 358 412 22,000  Level Los Angeles Center
Tue 02:44:55 PM 34.7622 -116.8158 263° West 362 417 22,000  Level Los Angeles Center
Tue 02:45:57 PM 34.7500 -116.9378 263° West 363 418 22,000  Level Los Angeles Center
Tue 02:46:59 PM 34.7367 -117.0622 263° West 370 426 22,000 -677 Level Los Angeles Center
Tue 02:48:01 PM 34.7217 -117.2106 263° West 368 423 20,600 -1,403 Descending Los Angeles Center
Tue 02:49:03 PM 34.7094 -117.3303 263° West 359 413 19,100 -1,403 Descending Los Angeles Center
Tue 02:50:05 PM 34.6969 -117.4467 263° West 350 403 17,700 -1,403 Descending Los Angeles Center
Tue 02:51:07 PM 34.6847 -117.5650 263° West 352 405 16,200 -1,452 Descending Los Angeles Center
Tue 02:52:09 PM 34.6722 -117.6803 263° West 349 402 14,700 -1,220 Descending Los Angeles Center
Tue 02:53:10 PM 34.6608 -117.7906 263° West 335 386 13,700 -976 Descending Los Angeles Center
Tue 02:54:12 PM 34.6506 -117.8811 262° West 336 387 12,700 -1,210 Descending Los Angeles Center
Tue 02:55:14 PM 34.6389 -117.9936 263° West 337 388 11,200 -1,403 Descending Los Angeles Center
Tue 02:56:16 PM 34.6203 -118.1125 259° West 299 344 9,800 -1,258 Descending Los Angeles Center
Tue 02:57:18 PM 34.5967 -118.2225 255° West 282 325 8,600 -871 Descending Los Angeles Center
Tue 02:58:20 PM 34.5761 -118.3114 254° West 276 318 8,000 -290 Descending Los Angeles Center
Tue 02:59:22 PM 34.5569 -118.3983 255° West 270 311 8,000  Level Los Angeles Center
Tue 03:00:24 PM 34.5367 -118.4858 254° West 270 311 8,000 -293 Level Los Angeles Center
Tue 03:01:25 PM 34.4864 -118.5536 228° Southwest 239 275 7,400 -1,122 Descending Los Angeles Center
Tue 03:02:27 PM 34.4239 -118.5344 166° South 228 262 5,700 -1,651 Descending Los Angeles Center
Tue 03:03:14 PM 34.3667 -118.5167 166° South 246 283 4,400 -1,290 Descending Southern California TRACON
Tue 03:04:14 PM 34.3167 -118.5167 180° South 209 241 3,400 -1,100 Descending Southern California TRACON
Tue 03:05:14 PM 34.2667 -118.5000 165° South 168 193 2,200 -1,150 Descending Southern California TRACON
Tue 03:06:14 PM 34.2333 -118.5000 180° South 124 143 1,100 -1,100 Descending Southern California TRACON
Tue 03:08:00 PM 34.2098 -118.4900 North  Level Estimated
Tue 03:15:00 PM 34.2098 -118.4900 North  Level Estimated

Login

Don't have an account? Register now (free) for customized features, flight alerts, and more!